Helemano Mltry Reservation, Hawaii
Current Conditions -  °F | °C
As of 11:58 PM on Wednesday 22 Oct 2014 (Local Time) from PHHI Reporting Station
Broken Clouds Broken Clouds  
Wind Chill: 72°   Ceiling: 3000
Heat Index: 72°   Visibility: 10mi
Dew Point: 70°   Wind: 2mph
Humidity: 95%   Direction: 280°W
Pressure: 30.03"   Gusts: NA
Location:  21.4794°N, 158.1°W
Report Text: PHHI 230958Z 28002KT 10SM SCT010 BKN030 22/21 A3003 RMK AO2A SLP159 T02220213 402700207
Loading
Personal Weather Stations






























Interactive Weather Map
Tropical Storm Tracking
New forecast layout! Learn more

10-Day Weather Forecast

Advertisements
Track Severe Weather on mobile